sensor_id;sensor_type;location;lat;lon;timestamp;pressure;altitude;pressure_sealevel;temperature;humidity
76074;BME280;64776;42.636;24.358;2023-08-01T00:00:35;89997.53;;;13.14;79.61
76074;BME280;64776;42.636;24.358;2023-08-01T00:03:36;90001.19;;;13.22;79.85
76074;BME280;64776;42.636;24.358;2023-08-01T00:06:38;89996.78;;;13.24;79.37
76074;BME280;64776;42.636;24.358;2023-08-01T00:09:39;89995.59;;;13.03;80.57
76074;BME280;64776;42.636;24.358;2023-08-01T00:12:40;89981.94;;;13.01;80.50
76074;BME280;64776;42.636;24.358;2023-08-01T00:15:40;89986.31;;;13.15;80.66
76074;BME280;64776;42.636;24.358;2023-08-01T00:18:41;89978.78;;;13.14;80.05
76074;BME280;64776;42.636;24.358;2023-08-01T00:21:43;89983.88;;;13.00;80.50
76074;BME280;64776;42.636;24.358;2023-08-01T00:24:44;89974.16;;;13.03;80.18
76074;BME280;64776;42.636;24.358;2023-08-01T00:27:45;89966.13;;;12.97;80.16
76074;BME280;64776;42.636;24.358;2023-08-01T00:30:46;89966.13;;;12.97;80.12
76074;BME280;64776;42.636;24.358;2023-08-01T00:33:46;89962.75;;;12.91;81.04
76074;BME280;64776;42.636;24.358;2023-08-01T00:36:49;89957.88;;;12.90;81.26
76074;BME280;64776;42.636;24.358;2023-08-01T00:39:49;89952.50;;;12.84;81.40
76074;BME280;64776;42.636;24.358;2023-08-01T00:42:50;89956.91;;;13.04;80.74
76074;BME280;64776;42.636;24.358;2023-08-01T00:45:51;89950.56;;;13.13;80.71
76074;BME280;64776;42.636;24.358;2023-08-01T00:48:55;89959.56;;;13.10;80.69
76074;BME280;64776;42.636;24.358;2023-08-01T00:51:57;89957.59;;;12.99;79.92
76074;BME280;64776;42.636;24.358;2023-08-01T00:54:59;89954.47;;;12.89;80.07
76074;BME280;64776;42.636;24.358;2023-08-01T00:57:59;89957.44;;;12.69;80.86
76074;BME280;64776;42.636;24.358;2023-08-01T01:01:00;89952.81;;;12.48;82.50
76074;BME280;64776;42.636;24.358;2023-08-01T01:04:01;89943.53;;;12.60;82.68
76074;BME280;64776;42.636;24.358;2023-08-01T01:07:06;89937.44;;;12.59;83.26
76074;BME280;64776;42.636;24.358;2023-08-01T01:10:07;89948.41;;;12.61;82.18
76074;BME280;64776;42.636;24.358;2023-08-01T01:13:08;89938.44;;;12.56;81.96
76074;BME280;64776;42.636;24.358;2023-08-01T01:16:09;89935.50;;;12.60;81.83
76074;BME280;64776;42.636;24.358;2023-08-01T01:19:10;89935.25;;;12.63;81.57
76074;BME280;64776;42.636;24.358;2023-08-01T01:22:12;89932.59;;;12.69;81.23
76074;BME280;64776;42.636;24.358;2023-08-01T01:25:14;89928.97;;;12.61;81.50
76074;BME280;64776;42.636;24.358;2023-08-01T01:28:16;89929.91;;;12.58;81.86
76074;BME280;64776;42.636;24.358;2023-08-01T01:31:17;89929.91;;;12.58;82.02
76074;BME280;64776;42.636;24.358;2023-08-01T01:34:18;89927.75;;;12.56;81.75
76074;BME280;64776;42.636;24.358;2023-08-01T01:37:20;89931.88;;;12.63;81.76
76074;BME280;64776;42.636;24.358;2023-08-01T01:40:21;89928.72;;;12.59;81.67
76074;BME280;64776;42.636;24.358;2023-08-01T01:43:22;89933.56;;;12.60;81.42
76074;BME280;64776;42.636;24.358;2023-08-01T01:46:23;89925.03;;;12.62;82.00
76074;BME280;64776;42.636;24.358;2023-08-01T01:49:23;89927.22;;;12.63;81.81
76074;BME280;64776;42.636;24.358;2023-08-01T01:52:26;89917.50;;;12.60;81.31
76074;BME280;64776;42.636;24.358;2023-08-01T01:55:26;89923.38;;;12.59;80.58
76074;BME280;64776;42.636;24.358;2023-08-01T01:58:27;89921.41;;;12.59;80.37
76074;BME280;64776;42.636;24.358;2023-08-01T02:01:28;89918.72;;;12.54;80.56
76074;BME280;64776;42.636;24.358;2023-08-01T02:04:29;89920.66;;;12.53;80.89
76074;BME280;64776;42.636;24.358;2023-08-01T02:07:31;89925.78;;;12.51;80.33
76074;BME280;64776;42.636;24.358;2023-08-01T02:10:32;89923.59;;;12.50;80.59
76074;BME280;64776;42.636;24.358;2023-08-01T02:13:33;89924.56;;;12.41;81.29
76074;BME280;64776;42.636;24.358;2023-08-01T02:16:33;89926.53;;;12.41;81.02
76074;BME280;64776;42.636;24.358;2023-08-01T02:19:34;89920.47;;;12.40;80.92
76074;BME280;64776;42.636;24.358;2023-08-01T02:22:36;89930.66;;;12.25;81.42
76074;BME280;64776;42.636;24.358;2023-08-01T02:25:38;89926.78;;;12.26;81.24
76074;BME280;64776;42.636;24.358;2023-08-01T02:28:39;89925.31;;;12.25;81.15
76074;BME280;64776;42.636;24.358;2023-08-01T02:31:40;89928.22;;;12.27;81.51
76074;BME280;64776;42.636;24.358;2023-08-01T02:34:40;89926.53;;;12.30;81.01
76074;BME280;64776;42.636;24.358;2023-08-01T02:37:43;89924.59;;;12.24;81.32
76074;BME280;64776;42.636;24.358;2023-08-01T02:40:43;89927.00;;;12.22;81.19
76074;BME280;64776;42.636;24.358;2023-08-01T02:43:44;89928.00;;;12.19;81.16
76074;BME280;64776;42.636;24.358;2023-08-01T02:46:45;89937.47;;;12.15;80.79
76074;BME280;64776;42.636;24.358;2023-08-01T02:49:46;89936.00;;;12.14;80.84
76074;BME280;64776;42.636;24.358;2023-08-01T02:52:48;89929.69;;;12.11;80.62
76074;BME280;64776;42.636;24.358;2023-08-01T02:55:49;89936.75;;;12.03;81.05
76074;BME280;64776;42.636;24.358;2023-08-01T02:58:50;89937.47;;;11.93;81.21
76074;BME280;64776;42.636;24.358;2023-08-01T03:01:50;89933.06;;;11.90;81.62
76074;BME280;64776;42.636;24.358;2023-08-01T03:04:51;89938.91;;;11.83;81.67
76074;BME280;64776;42.636;24.358;2023-08-01T03:07:53;89933.81;;;11.85;81.57
76074;BME280;64776;42.636;24.358;2023-08-01T03:10:54;89936.94;;;11.83;81.69
76074;BME280;64776;42.636;24.358;2023-08-01T03:13:55;89935.75;;;11.84;81.24
76074;BME280;64776;42.636;24.358;2023-08-01T03:16:56;89937.63;;;11.73;82.19
76074;BME280;64776;42.636;24.358;2023-08-01T03:19:56;89935.25;;;11.80;81.91
76074;BME280;64776;42.636;24.358;2023-08-01T03:22:59;89943.03;;;11.84;81.76
76074;BME280;64776;42.636;24.358;2023-08-01T03:25:59;89938.41;;;11.84;81.71
76074;BME280;64776;42.636;24.358;2023-08-01T03:29:00;89941.72;;;11.63;81.96
76074;BME280;64776;42.636;24.358;2023-08-01T03:32:01;89938.53;;;11.53;82.20
76074;BME280;64776;42.636;24.358;2023-08-01T03:35:02;89936.63;;;11.54;82.15
76074;BME280;64776;42.636;24.358;2023-08-01T03:38:05;89937.31;;;11.48;81.76
76074;BME280;64776;42.636;24.358;2023-08-01T03:41:05;89931.47;;;11.44;82.50
76074;BME280;64776;42.636;24.358;2023-08-01T03:44:06;89933.44;;;11.50;82.89
76074;BME280;64776;42.636;24.358;2023-08-01T03:47:07;89939.28;;;11.54;83.38
76074;BME280;64776;42.636;24.358;2023-08-01T03:50:09;89934.44;;;11.58;83.19
76074;BME280;64776;42.636;24.358;2023-08-01T03:53:11;89938.81;;;11.61;82.65
76074;BME280;64776;42.636;24.358;2023-08-01T03:56:12;89940.28;;;11.62;82.54
76074;BME280;64776;42.636;24.358;2023-08-01T03:59:13;89941.28;;;11.70;82.61
76074;BME280;64776;42.636;24.358;2023-08-01T04:02:14;89937.19;;;11.80;82.30
76074;BME280;64776;42.636;24.358;2023-08-01T04:05:15;89933.56;;;11.83;82.27
76074;BME280;64776;42.636;24.358;2023-08-01T04:08:17;89942.28;;;11.72;82.08
76074;BME280;64776;42.636;24.358;2023-08-01T04:11:18;89941.53;;;11.72;82.10
76074;BME280;64776;42.636;24.358;2023-08-01T04:14:19;89948.78;;;11.66;82.02
76074;BME280;64776;42.636;24.358;2023-08-01T04:17:20;89946.34;;;11.62;82.49
76074;BME280;64776;42.636;24.358;2023-08-01T04:20:20;89943.91;;;11.59;83.54
76074;BME280;64776;42.636;24.358;2023-08-01T04:23:23;89947.81;;;11.63;83.36
76074;BME280;64776;42.636;24.358;2023-08-01T04:26:23;89942.28;;;11.72;83.28
76074;BME280;64776;42.636;24.358;2023-08-01T04:29:24;89944.25;;;11.83;83.39
76074;BME280;64776;42.636;24.358;2023-08-01T04:32:25;89939.88;;;11.91;83.86
76074;BME280;64776;42.636;24.358;2023-08-01T04:35:26;89931.41;;;12.03;83.42
76074;BME280;64776;42.636;24.358;2023-08-01T04:38:28;89939.91;;;12.13;83.98
76074;BME280;64776;42.636;24.358;2023-08-01T04:41:29;89938.22;;;12.15;83.94
76074;BME280;64776;42.636;24.358;2023-08-01T04:44:29;89945.25;;;12.30;83.58
76074;BME280;64776;42.636;24.358;2023-08-01T04:47:30;89939.41;;;12.31;83.58
76074;BME280;64776;42.636;24.358;2023-08-01T04:50:31;89940.88;;;12.43;83.60
76074;BME280;64776;42.636;24.358;2023-08-01T04:53:33;89939.41;;;12.59;82.97
76074;BME280;64776;42.636;24.358;2023-08-01T04:56:34;89941.59;;;12.77;83.19
76074;BME280;64776;42.636;24.358;2023-08-01T04:59:35;89943.25;;;12.91;82.71
76074;BME280;64776;42.636;24.358;2023-08-01T05:02:35;89949.56;;;13.04;82.72
76074;BME280;64776;42.636;24.358;2023-08-01T05:05:36;89937.34;;;13.26;82.05
76074;BME280;64776;42.636;24.358;2023-08-01T05:08:38;89943.63;;;13.45;81.67
76074;BME280;64776;42.636;24.358;2023-08-01T05:11:39;89943.00;;;13.74;80.56
76074;BME280;64776;42.636;24.358;2023-08-01T05:14:40;89947.31;;;13.88;80.56
76074;BME280;64776;42.636;24.358;2023-08-01T05:17:41;89943.78;;;14.10;80.89
76074;BME280;64776;42.636;24.358;2023-08-01T05:20:42;89950.78;;;14.24;80.23
76074;BME280;64776;42.636;24.358;2023-08-01T05:23:44;89951.56;;;14.54;79.91
76074;BME280;64776;42.636;24.358;2023-08-01T05:26:45;89952.38;;;14.73;78.79
76074;BME280;64776;42.636;24.358;2023-08-01T05:29:45;89944.63;;;14.94;78.46
76074;BME280;64776;42.636;24.358;2023-08-01T05:32:46;89940.47;;;15.17;77.75
76074;BME280;64776;42.636;24.358;2023-08-01T05:35:48;89943.16;;;15.41;77.75
76074;BME280;64776;42.636;24.358;2023-08-01T05:38:50;89937.56;;;15.63;76.62
76074;BME280;64776;42.636;24.358;2023-08-01T05:41:51;89935.75;;;15.90;75.92
76074;BME280;64776;42.636;24.358;2023-08-01T05:44:52;89944.69;;;16.16;74.51
76074;BME280;64776;42.636;24.358;2023-08-01T05:47:52;89940.16;;;16.43;74.02
76074;BME280;64776;42.636;24.358;2023-08-01T05:50:53;89942.63;;;16.60;73.86
76074;BME280;64776;42.636;24.358;2023-08-01T05:53:55;89941.69;;;16.89;72.58
76074;BME280;64776;42.636;24.358;2023-08-01T05:56:56;89929.91;;;17.18;70.86
76074;BME280;64776;42.636;24.358;2023-08-01T05:59:57;89931.56;;;17.34;70.00
76074;BME280;64776;42.636;24.358;2023-08-01T06:02:58;89932.84;;;17.59;69.58
76074;BME280;64776;42.636;24.358;2023-08-01T06:05:58;89937.47;;;17.98;69.85
76074;BME280;64776;42.636;24.358;2023-08-01T06:09:01;89933.69;;;18.27;69.73
76074;BME280;64776;42.636;24.358;2023-08-01T06:12:01;89935.72;;;18.47;68.60
76074;BME280;64776;42.636;24.358;2023-08-01T06:15:03;89930.97;;;18.61;65.49
76074;BME280;64776;42.636;24.358;2023-08-01T06:18:04;89932.84;;;18.66;66.56
76074;BME280;64776;42.636;24.358;2023-08-01T06:21:05;89929.75;;;18.83;63.53
76074;BME280;64776;42.636;24.358;2023-08-01T06:24:07;89932.06;;;18.99;63.74
76074;BME280;64776;42.636;24.358;2023-08-01T06:27:08;89924.34;;;19.31;60.96
76074;BME280;64776;42.636;24.358;2023-08-01T06:30:09;89928.25;;;19.43;59.35
76074;BME280;64776;42.636;24.358;2023-08-01T06:33:10;89922.06;;;19.64;60.19
76074;BME280;64776;42.636;24.358;2023-08-01T06:36:11;89925.13;;;19.96;60.00
76074;BME280;64776;42.636;24.358;2023-08-01T06:39:13;89919.22;;;20.05;57.92
76074;BME280;64776;42.636;24.358;2023-08-01T06:42:13;89925.56;;;20.15;57.21
76074;BME280;64776;42.636;24.358;2023-08-01T06:45:15;89915.34;;;20.36;54.61
76074;BME280;64776;42.636;24.358;2023-08-01T06:48:16;89924.47;;;20.61;53.81
76074;BME280;64776;42.636;24.358;2023-08-01T06:51:17;89921.63;;;20.89;53.44
76074;BME280;64776;42.636;24.358;2023-08-01T06:54:19;89917.13;;;21.15;50.54
76074;BME280;64776;42.636;24.358;2023-08-01T06:57:20;89913.50;;;21.27;49.80
76074;BME280;64776;42.636;24.358;2023-08-01T07:00:20;89916.06;;;21.33;49.43
76074;BME280;64776;42.636;24.358;2023-08-01T07:03:21;89918.59;;;21.38;49.94
76074;BME280;64776;42.636;24.358;2023-08-01T07:06:23;89912.25;;;21.36;49.84
76074;BME280;64776;42.636;24.358;2023-08-01T07:09:25;89912.41;;;21.53;50.43
76074;BME280;64776;42.636;24.358;2023-08-01T07:12:26;89915.31;;;21.55;50.15
76074;BME280;64776;42.636;24.358;2023-08-01T07:15:26;89912.56;;;21.77;49.42
76074;BME280;64776;42.636;24.358;2023-08-01T07:18:27;89907.28;;;21.95;49.76
76074;BME280;64776;42.636;24.358;2023-08-01T07:21:28;89917.38;;;22.09;48.66
76074;BME280;64776;42.636;24.358;2023-08-01T07:24:30;89910.75;;;22.35;49.19
76074;BME280;64776;42.636;24.358;2023-08-01T07:27:31;89906.75;;;22.43;48.89
76074;BME280;64776;42.636;24.358;2023-08-01T07:30:32;89902.69;;;22.59;47.41
76074;BME280;64776;42.636;24.358;2023-08-01T07:33:33;89909.47;;;22.83;47.35
76074;BME280;64776;42.636;24.358;2023-08-01T07:36:34;89905.28;;;23.07;44.77
76074;BME280;64776;42.636;24.358;2023-08-01T07:39:36;89902.50;;;22.90;45.54
76074;BME280;64776;42.636;24.358;2023-08-01T07:42:37;89905.91;;;22.98;44.63
76074;BME280;64776;42.636;24.358;2023-08-01T07:45:37;89904.41;;;23.04;44.67
76074;BME280;64776;42.636;24.358;2023-08-01T07:48:38;89908.09;;;23.24;44.53
76074;BME280;64776;42.636;24.358;2023-08-01T07:51:39;89904.31;;;23.44;46.08
76074;BME280;64776;42.636;24.358;2023-08-01T07:54:41;89904.19;;;23.59;45.53
76074;BME280;64776;42.636;24.358;2023-08-01T07:57:42;89906.78;;;23.91;44.16
76074;BME280;64776;42.636;24.358;2023-08-01T08:00:43;89905.56;;;24.02;44.13
76074;BME280;64776;42.636;24.358;2023-08-01T08:03:44;89919.00;;;24.24;44.12
76074;BME280;64776;42.636;24.358;2023-08-01T08:06:44;89914.09;;;24.23;45.30
76074;BME280;64776;42.636;24.358;2023-08-01T08:09:50;89919.63;;;24.15;45.54
76074;BME280;64776;42.636;24.358;2023-08-01T08:12:51;89921.72;;;24.24;45.42
76074;BME280;64776;42.636;24.358;2023-08-01T08:15:52;89924.28;;;24.22;46.40
76074;BME280;64776;42.636;24.358;2023-08-01T08:18:55;89912.75;;;24.14;46.45
76074;BME280;64776;42.636;24.358;2023-08-01T08:21:56;89913.16;;;24.11;47.21
76074;BME280;64776;42.636;24.358;2023-08-01T08:24:58;89908.50;;;24.04;47.34
76074;BME280;64776;42.636;24.358;2023-08-01T08:27:59;89914.00;;;23.96;46.99
76074;BME280;64776;42.636;24.358;2023-08-01T08:31:00;89901.72;;;23.88;46.75
76074;BME280;64776;42.636;24.358;2023-08-01T08:34:01;89908.22;;;23.75;48.13
76074;BME280;64776;42.636;24.358;2023-08-01T08:37:02;89908.81;;;23.66;48.40
76074;BME280;64776;42.636;24.358;2023-08-01T08:40:05;89901.47;;;23.76;48.50
76074;BME280;64776;42.636;24.358;2023-08-01T08:43:06;89896.78;;;24.11;47.29
76074;BME280;64776;42.636;24.358;2023-08-01T08:46:08;89895.41;;;24.19;47.19
76074;BME280;64776;42.636;24.358;2023-08-01T08:49:09;89893.00;;;23.89;47.48
76074;BME280;64776;42.636;24.358;2023-08-01T08:52:10;89888.31;;;23.82;47.16
76074;BME280;64776;42.636;24.358;2023-08-01T08:55:13;89891.31;;;23.35;49.78
76074;BME280;64776;42.636;24.358;2023-08-01T08:58:15;89887.03;;;23.66;47.18
76074;BME280;64776;42.636;24.358;2023-08-01T09:01:17;89885.06;;;24.18;46.99
76074;BME280;64776;42.636;24.358;2023-08-01T09:04:18;89888.63;;;24.55;45.92
76074;BME280;64776;42.636;24.358;2023-08-01T09:07:22;89891.78;;;24.34;46.94
76074;BME280;64776;42.636;24.358;2023-08-01T09:10:25;89880.03;;;25.12;45.30
76074;BME280;64776;42.636;24.358;2023-08-01T09:13:26;89887.97;;;25.27;44.20
76074;BME280;64776;42.636;24.358;2023-08-01T09:16:27;89880.91;;;25.50;43.90
76074;BME280;64776;42.636;24.358;2023-08-01T09:19:28;89867.03;;;26.04;43.26
76074;BME280;64776;42.636;24.358;2023-08-01T09:22:29;89875.06;;;25.82;43.87
76074;BME280;64776;42.636;24.358;2023-08-01T09:25:34;89879.75;;;25.53;43.55
76074;BME280;64776;42.636;24.358;2023-08-01T09:28:35;89880.69;;;24.93;44.00
76074;BME280;64776;42.636;24.358;2023-08-01T09:31:37;89884.78;;;25.11;44.85
76074;BME280;64776;42.636;24.358;2023-08-01T09:34:38;89879.78;;;25.27;45.00
76074;BME280;64776;42.636;24.358;2023-08-01T09:37:41;89871.91;;;25.96;43.87
76074;BME280;64776;42.636;24.358;2023-08-01T09:40:44;89868.94;;;26.20;40.56
76074;BME280;64776;42.636;24.358;2023-08-01T09:43:45;89868.78;;;26.28;42.28
76074;BME280;64776;42.636;24.358;2023-08-01T09:46:55;89869.34;;;26.74;40.03
76074;BME280;64776;42.636;24.358;2023-08-01T09:49:56;89870.44;;;26.90;39.71
76074;BME280;64776;42.636;24.358;2023-08-01T09:53:07;89866.69;;;26.95;40.41
76074;BME280;64776;42.636;24.358;2023-08-01T09:56:09;89856.94;;;27.54;38.05
76074;BME280;64776;42.636;24.358;2023-08-01T09:59:11;89852.88;;;27.24;39.16
76074;BME280;64776;42.636;24.358;2023-08-01T10:02:15;89851.91;;;27.50;37.02
76074;BME280;64776;42.636;24.358;2023-08-01T10:05:19;89852.50;;;28.00;36.80
76074;BME280;64776;42.636;24.358;2023-08-01T10:08:20;89836.63;;;27.99;34.49
76074;BME280;64776;42.636;24.358;2023-08-01T10:11:23;89844.56;;;27.95;34.25
76074;BME280;64776;42.636;24.358;2023-08-01T10:14:25;89843.16;;;28.15;34.65
76074;BME280;64776;42.636;24.358;2023-08-01T10:17:26;89832.13;;;28.57;34.05
76074;BME280;64776;42.636;24.358;2023-08-01T10:20:30;89839.59;;;28.89;34.50
76074;BME280;64776;42.636;24.358;2023-08-01T10:23:32;89843.34;;;28.61;32.61
76074;BME280;64776;42.636;24.358;2023-08-01T10:26:34;89835.50;;;28.46;34.15
76074;BME280;64776;42.636;24.358;2023-08-01T10:29:36;89830.75;;;28.47;33.47
76074;BME280;64776;42.636;24.358;2023-08-01T10:32:38;89831.09;;;28.85;33.81
76074;BME280;64776;42.636;24.358;2023-08-01T10:35:40;89828.31;;;29.18;34.54
76074;BME280;64776;42.636;24.358;2023-08-01T10:38:48;89813.59;;;29.37;33.48
76074;BME280;64776;42.636;24.358;2023-08-01T10:41:58;89811.53;;;29.14;33.72
76074;BME280;64776;42.636;24.358;2023-08-01T10:44:59;89803.91;;;29.47;32.91
76074;BME280;64776;42.636;24.358;2023-08-01T10:48:07;89796.59;;;29.87;31.98
76074;BME280;64776;42.636;24.358;2023-08-01T10:51:08;89797.66;;;29.93;30.05
76074;BME280;64776;42.636;24.358;2023-08-01T10:54:20;89788.75;;;29.46;29.69
76074;BME280;64776;42.636;24.358;2023-08-01T10:57:23;89800.34;;;29.80;31.93
76074;BME280;64776;42.636;24.358;2023-08-01T11:00:24;89790.72;;;29.92;30.67
76074;BME280;64776;42.636;24.358;2023-08-01T11:03:34;89785.69;;;30.00;29.94
76074;BME280;64776;42.636;24.358;2023-08-01T11:06:43;89781.09;;;30.67;29.57
76074;BME280;64776;42.636;24.358;2023-08-01T11:09:44;89775.31;;;30.99;28.90
76074;BME280;64776;42.636;24.358;2023-08-01T11:12:46;89770.84;;;30.81;28.76
76074;BME280;64776;42.636;24.358;2023-08-01T11:15:48;89769.38;;;30.66;30.43
76074;BME280;64776;42.636;24.358;2023-08-01T11:18:49;89769.69;;;31.11;28.90
76074;BME280;64776;42.636;24.358;2023-08-01T11:21:50;89764.72;;;31.21;26.94
76074;BME280;64776;42.636;24.358;2023-08-01T11:24:51;89764.50;;;31.17;27.07
76074;BME280;64776;42.636;24.358;2023-08-01T11:27:53;89766.53;;;31.03;26.91
76074;BME280;64776;42.636;24.358;2023-08-01T11:30:54;89757.88;;;31.22;27.08
76074;BME280;64776;42.636;24.358;2023-08-01T11:33:55;89748.00;;;31.44;27.87
76074;BME280;64776;42.636;24.358;2023-08-01T11:36:56;89753.19;;;31.52;26.84
76074;BME280;64776;42.636;24.358;2023-08-01T11:39:58;89761.03;;;31.84;27.58
76074;BME280;64776;42.636;24.358;2023-08-01T11:43:00;89758.38;;;31.86;26.06
76074;BME280;64776;42.636;24.358;2023-08-01T11:46:01;89764.75;;;31.48;27.04
76074;BME280;64776;42.636;24.358;2023-08-01T11:49:03;89753.88;;;31.25;27.68
76074;BME280;64776;42.636;24.358;2023-08-01T11:52:04;89754.56;;;30.98;27.72
76074;BME280;64776;42.636;24.358;2023-08-01T11:55:06;89754.81;;;30.27;28.60
76074;BME280;64776;42.636;24.358;2023-08-01T11:58:08;89752.69;;;29.89;28.66
76074;BME280;64776;42.636;24.358;2023-08-01T12:01:11;89752.97;;;29.81;29.27
76074;BME280;64776;42.636;24.358;2023-08-01T12:04:23;89755.59;;;29.79;29.20
76074;BME280;64776;42.636;24.358;2023-08-01T12:07:25;89755.72;;;29.58;29.56
76074;BME280;64776;42.636;24.358;2023-08-01T12:10:36;89751.63;;;29.22;30.08
76074;BME280;64776;42.636;24.358;2023-08-01T12:13:39;89751.59;;;28.99;30.12
76074;BME280;64776;42.636;24.358;2023-08-01T12:16:42;89757.84;;;28.55;31.26
76074;BME280;64776;42.636;24.358;2023-08-01T12:19:43;89756.47;;;28.33;33.08
76074;BME280;64776;42.636;24.358;2023-08-01T12:22:44;89749.84;;;28.48;32.01
76074;BME280;64776;42.636;24.358;2023-08-01T12:25:45;89748.38;;;28.91;31.80
76074;BME280;64776;42.636;24.358;2023-08-01T12:28:48;89742.50;;;28.96;31.38
76074;BME280;64776;42.636;24.358;2023-08-01T12:31:48;89740.69;;;29.59;31.24
76074;BME280;64776;42.636;24.358;2023-08-01T12:34:49;89735.38;;;30.11;30.91
76074;BME280;64776;42.636;24.358;2023-08-01T12:37:50;89734.69;;;30.11;31.13
76074;BME280;64776;42.636;24.358;2023-08-01T12:40:51;89730.69;;;30.14;32.21
76074;BME280;64776;42.636;24.358;2023-08-01T12:43:53;89724.78;;;30.31;31.02
76074;BME280;64776;42.636;24.358;2023-08-01T12:46:54;89721.72;;;30.64;30.73
76074;BME280;64776;42.636;24.358;2023-08-01T12:49:55;89707.63;;;31.23;29.69
76074;BME280;64776;42.636;24.358;2023-08-01T12:52:56;89717.75;;;31.19;27.46
76074;BME280;64776;42.636;24.358;2023-08-01T12:55:57;89713.34;;;31.27;28.47
76074;BME280;64776;42.636;24.358;2023-08-01T12:59:01;89707.28;;;31.85;26.30
76074;BME280;64776;42.636;24.358;2023-08-01T13:02:02;89711.06;;;31.78;27.05
76074;BME280;64776;42.636;24.358;2023-08-01T13:05:04;89706.78;;;32.18;26.97
76074;BME280;64776;42.636;24.358;2023-08-01T13:08:05;89712.97;;;32.46;26.86
76074;BME280;64776;42.636;24.358;2023-08-01T13:11:10;89716.53;;;31.49;27.09
76074;BME280;64776;42.636;24.358;2023-08-01T13:14:13;89713.47;;;31.43;27.00
76074;BME280;64776;42.636;24.358;2023-08-01T13:17:14;89700.78;;;31.24;26.57
76074;BME280;64776;42.636;24.358;2023-08-01T13:20:14;89705.72;;;30.74;27.97
76074;BME280;64776;42.636;24.358;2023-08-01T13:23:15;89701.19;;;30.92;28.33
76074;BME280;64776;42.636;24.358;2023-08-01T13:26:17;89697.63;;;31.03;27.28
76074;BME280;64776;42.636;24.358;2023-08-01T13:29:19;89687.91;;;31.02;27.70
76074;BME280;64776;42.636;24.358;2023-08-01T13:32:20;89681.28;;;31.07;26.78
76074;BME280;64776;42.636;24.358;2023-08-01T13:35:21;89686.69;;;31.32;27.03
76074;BME280;64776;42.636;24.358;2023-08-01T13:38:22;89681.78;;;31.17;26.59
76074;BME280;64776;42.636;24.358;2023-08-01T13:41:22;89678.44;;;30.52;27.12
76074;BME280;64776;42.636;24.358;2023-08-01T13:44:25;89688.78;;;30.66;27.46
76074;BME280;64776;42.636;24.358;2023-08-01T13:47:25;89685.88;;;30.89;27.52
76074;BME280;64776;42.636;24.358;2023-08-01T13:50:28;89688.22;;;31.08;27.89
76074;BME280;64776;42.636;24.358;2023-08-01T13:53:29;89678.22;;;31.14;27.29
76074;BME280;64776;42.636;24.358;2023-08-01T13:56:30;89671.16;;;30.98;27.54
76074;BME280;64776;42.636;24.358;2023-08-01T13:59:32;89674.59;;;30.58;27.25
76074;BME280;64776;42.636;24.358;2023-08-01T14:02:33;89678.38;;;30.64;27.56
76074;BME280;64776;42.636;24.358;2023-08-01T14:05:34;89681.91;;;30.53;28.94
76074;BME280;64776;42.636;24.358;2023-08-01T14:08:35;89677.50;;;30.87;27.94
76074;BME280;64776;42.636;24.358;2023-08-01T14:11:36;89680.59;;;30.54;28.15
76074;BME280;64776;42.636;24.358;2023-08-01T14:14:39;89676.91;;;30.24;28.63
76074;BME280;64776;42.636;24.358;2023-08-01T14:17:39;89674.22;;;30.38;28.66
76074;BME280;64776;42.636;24.358;2023-08-01T14:20:40;89671.81;;;30.19;28.53
76074;BME280;64776;42.636;24.358;2023-08-01T14:23:41;89671.41;;;29.74;29.92
76074;BME280;64776;42.636;24.358;2023-08-01T14:26:42;89669.75;;;29.69;30.05
76074;BME280;64776;42.636;24.358;2023-08-01T14:29:44;89667.59;;;29.67;30.36
76074;BME280;64776;42.636;24.358;2023-08-01T14:32:45;89664.34;;;29.71;30.14
76074;BME280;64776;42.636;24.358;2023-08-01T14:35:45;89659.75;;;29.50;29.95
76074;BME280;64776;42.636;24.358;2023-08-01T14:38:47;89665.31;;;29.27;30.00
76074;BME280;64776;42.636;24.358;2023-08-01T14:41:48;89665.09;;;29.60;29.51
76074;BME280;64776;42.636;24.358;2023-08-01T14:44:54;89651.72;;;29.54;29.54
76074;BME280;64776;42.636;24.358;2023-08-01T14:47:54;89662.88;;;29.45;29.80
76074;BME280;64776;42.636;24.358;2023-08-01T14:50:55;89658.06;;;29.57;30.41
76074;BME280;64776;42.636;24.358;2023-08-01T14:53:56;89665.16;;;29.48;30.06
76074;BME280;64776;42.636;24.358;2023-08-01T14:56:57;89667.69;;;29.33;30.49
76074;BME280;64776;42.636;24.358;2023-08-01T14:59:59;89665.69;;;28.98;32.42
76074;BME280;64776;42.636;24.358;2023-08-01T15:03:00;89666.53;;;28.78;33.12
76074;BME280;64776;42.636;24.358;2023-08-01T15:06:05;89665.47;;;28.71;33.49
76074;BME280;64776;42.636;24.358;2023-08-01T15:09:06;89667.16;;;28.09;34.49
76074;BME280;64776;42.636;24.358;2023-08-01T15:12:07;89670.66;;;27.88;34.32
76074;BME280;64776;42.636;24.358;2023-08-01T15:15:10;89659.91;;;27.69;34.92
76074;BME280;64776;42.636;24.358;2023-08-01T15:18:11;89662.03;;;27.71;35.05
76074;BME280;64776;42.636;24.358;2023-08-01T15:21:11;89660.53;;;27.91;35.28
76074;BME280;64776;42.636;24.358;2023-08-01T15:24:12;89653.50;;;28.21;34.27
76074;BME280;64776;42.636;24.358;2023-08-01T15:27:13;89655.31;;;28.39;34.18
76074;BME280;64776;42.636;24.358;2023-08-01T15:30:15;89655.28;;;28.51;34.20
76074;BME280;64776;42.636;24.358;2023-08-01T15:33:16;89654.56;;;28.39;34.01
76074;BME280;64776;42.636;24.358;2023-08-01T15:36:17;89655.28;;;28.28;34.27
76074;BME280;64776;42.636;24.358;2023-08-01T15:39:19;89654.00;;;28.63;34.54
76074;BME280;64776;42.636;24.358;2023-08-01T15:42:20;89653.41;;;28.65;34.17
76074;BME280;64776;42.636;24.358;2023-08-01T15:45:23;89644.06;;;28.47;34.59
76074;BME280;64776;42.636;24.358;2023-08-01T15:48:24;89651.50;;;28.56;34.85